Washington, Indiana
Current Conditions -  °F | °C
As of 9:15 AM on Wednesday 22 Oct 2014 (Local Time) from KDCY Reporting Station
Clear Clear  
Wind Chill: 43°   Ceiling: Unl
Heat Index: 47°   Visibility: 10mi
Dew Point: 41°   Wind: 8mph
Humidity: 82%   Direction: 70°ENE
Pressure: 30.32"   Gusts: NA
Location:  38.66°N, 87.17°W
Report Text: KDCY 221415Z AUTO 07007KT 10SM CLR 08/05 A3032 RMK AO2 T00810052
Loading
Personal Weather Stations






























Interactive Weather Map
Tropical Storm Tracking
New forecast layout! Learn more

10-Day Weather Forecast

Advertisements
Track Severe Weather on mobile